< < Back
Terminal Aerodrome Forecast


Current Version              Previous Versions:   1  2  3  4  5  6  7  8  9  

Terminal Aerodrome Forecast

348
FTUS44 KBMX 281720
TAFANB
TAF
KANB 281720Z 2818/2918 02008KT P6SM VCSH BKN035 BKN150
     FM282100 36010KT P6SM VCTS BKN050CB
     FM290100 01005KT P6SM BKN250=

Latest METAR

872
SAUS70 KWBC 290700 RRM
MTRANB
METAR KANB 290653Z AUTO 00000KT 10SM CLR 22/21 A2997 RMK AO2 SLP140
T02220206


USA.gov is the U.S. government's official web portal to all federal, state and local government web resources and services.